KEMV

Emporia-Greensville Regional Airport

Emporia, Virginia, USA
METAR KEMV 231455Z AUTO 19008KT CLR 26/21 A3003 RMK AO2 PWINO
Observed Flight Rules
May-23 @ 14:55 UTC (15 minutes ago)
Wind Clouds
190° at 8 knots
  • Clear skies
Temperatures Readings
Current 26°C / 79°F
Dewpoint 21°C / 70°F
Humidity 74%
Altimeter 30.03" Hg
Pressure 1017 hPa
Elevation 39
METAR KEMV 231455Z AUTO 19008KT CLR 26/21 A3003 RMK AO2 PWINO
Observed Flight Rules
May-23 @ 14:55 UTC
(15 minutes ago)
Wind
190° at 8 knots
Clouds
  • Clear skies
Temperature Dewpoint
26°C / 79°F 21°C / 70°F
Humidity Altimeter Pressure
74% 30.03" Hg 1017 hPa